createdAt,value
2019-05-19T00:00:37.696Z,12.10
2019-05-19T00:03:06.128Z,12.10
2019-05-19T00:05:35.810Z,12.00
2019-05-19T00:08:04.237Z,12.00
2019-05-19T00:10:32.690Z,12.00
2019-05-19T00:13:01.458Z,12.00
2019-05-19T00:15:29.910Z,12.00
2019-05-19T00:17:58.642Z,11.90
2019-05-19T00:20:27.069Z,12.00
2019-05-19T00:22:55.506Z,12.00
2019-05-19T00:25:23.955Z,12.00
2019-05-19T00:27:52.463Z,12.10
2019-05-19T00:30:20.913Z,12.10
2019-05-19T00:32:49.722Z,12.10
2019-05-19T00:35:18.510Z,12.10
2019-05-19T00:37:46.937Z,12.10
2019-05-19T00:40:15.373Z,12.10
2019-05-19T00:42:43.816Z,12.00
2019-05-19T00:45:14.260Z,12.00
2019-05-19T00:47:42.753Z,12.00
2019-05-19T00:50:11.953Z,12.00
2019-05-19T00:52:40.390Z,11.90
2019-05-19T00:55:09.148Z,11.80
2019-05-19T00:57:38.117Z,11.80
2019-05-19T01:00:08.921Z,11.80
2019-05-19T01:02:37.362Z,11.90
2019-05-19T01:05:07.477Z,12.00
2019-05-19T01:07:36.251Z,11.90
2019-05-19T01:10:06.801Z,12.00
2019-05-19T01:12:35.235Z,12.00
2019-05-19T01:15:05.428Z,12.00
2019-05-19T01:17:33.864Z,12.10
2019-05-19T01:20:02.746Z,12.10
2019-05-19T01:22:31.223Z,12.10
2019-05-19T01:24:59.966Z,12.20
2019-05-19T01:27:28.412Z,12.10
2019-05-19T01:29:56.878Z,12.10
2019-05-19T01:32:25.309Z,12.10
2019-05-19T01:34:53.771Z,12.10
2019-05-19T01:37:22.248Z,12.10
2019-05-19T01:39:50.722Z,12.00
2019-05-19T01:42:19.434Z,11.90
2019-05-19T01:44:48.215Z,11.90
2019-05-19T01:47:16.658Z,11.80
2019-05-19T01:49:45.141Z,11.80
2019-05-19T01:52:13.577Z,11.90
2019-05-19T01:54:42.059Z,11.80
2019-05-19T01:57:10.778Z,11.80
2019-05-19T01:59:39.610Z,11.80
2019-05-19T02:02:08.042Z,11.90
2019-05-19T02:04:36.497Z,11.90
2019-05-19T02:07:05.019Z,11.90
2019-05-19T02:09:33.425Z,11.90
2019-05-19T02:12:01.845Z,11.90
2019-05-19T02:14:30.292Z,11.90
2019-05-19T02:16:59.083Z,11.90
2019-05-19T02:19:27.530Z,11.90
2019-05-19T02:21:55.977Z,11.90
2019-05-19T02:24:24.701Z,11.90
2019-05-19T02:26:53.150Z,11.80
2019-05-19T02:29:21.586Z,11.80
2019-05-19T02:31:50.045Z,11.90
2019-05-19T02:34:18.496Z,11.90
2019-05-19T02:36:46.940Z,12.00
2019-05-19T02:39:15.694Z,12.00
2019-05-19T02:41:47.747Z,12.10
2019-05-19T02:44:20.167Z,12.10
2019-05-19T02:46:51.271Z,12.10
2019-05-19T02:49:22.405Z,12.10
2019-05-19T02:51:52.367Z,12.10
2019-05-19T02:54:21.744Z,12.00
2019-05-19T02:56:51.818Z,12.00
2019-05-19T02:59:22.748Z,12.00
2019-05-19T03:02:07.757Z,12.00
2019-05-19T03:04:36.169Z,12.10
2019-05-19T03:07:04.741Z,12.10
2019-05-19T03:09:33.162Z,12.00
2019-05-19T03:12:01.594Z,12.00
2019-05-19T03:14:30.031Z,12.00
2019-05-19T03:16:58.820Z,12.00
2019-05-19T03:19:27.260Z,12.00
2019-05-19T03:21:55.701Z,12.00
2019-05-19T03:24:24.152Z,12.00
2019-05-19T03:26:52.645Z,12.00
2019-05-19T03:29:22.708Z,12.00
2019-05-19T03:31:52.778Z,11.90
2019-05-19T03:34:21.773Z,11.90
2019-05-19T03:36:50.209Z,11.90
2019-05-19T03:39:19.039Z,12.00
2019-05-19T03:41:47.477Z,12.00
2019-05-19T03:44:15.921Z,12.00
2019-05-19T03:46:44.695Z,12.00
2019-05-19T03:49:13.104Z,11.90
2019-05-19T03:51:41.549Z,11.90
2019-05-19T03:54:10.010Z,11.90
2019-05-19T03:56:38.433Z,12.00
2019-05-19T03:59:07.215Z,12.00
2019-05-19T04:01:35.639Z,12.00
2019-05-19T04:04:04.068Z,12.00
2019-05-19T04:06:32.525Z,12.10
2019-05-19T04:09:00.973Z,12.00
2019-05-19T04:11:29.400Z,12.10
2019-05-19T04:13:58.163Z,12.10
2019-05-19T04:16:26.596Z,12.10
2019-05-19T04:18:55.024Z,12.20
2019-05-19T04:21:23.441Z,12.20
2019-05-19T04:23:51.900Z,12.20
2019-05-19T04:26:20.670Z,12.20
2019-05-19T04:28:49.152Z,12.20
2019-05-19T04:31:17.583Z,12.20
2019-05-19T04:33:46.022Z,12.30
2019-05-19T04:36:14.430Z,12.30
2019-05-19T04:38:42.901Z,12.30
2019-05-19T04:41:11.398Z,12.40
2019-05-19T04:43:39.905Z,12.50
2019-05-19T04:46:08.348Z,12.50
2019-05-19T04:48:36.799Z,12.50
2019-05-19T04:51:05.227Z,12.60
2019-05-19T04:53:33.657Z,12.60
2019-05-19T04:56:02.121Z,12.60
2019-05-19T04:58:30.585Z,12.60
2019-05-19T05:00:59.011Z,12.70
2019-05-19T05:03:27.775Z,12.70
2019-05-19T05:05:56.204Z,12.70
2019-05-19T05:08:30.418Z,12.70
2019-05-19T05:10:54.770Z,12.70
2019-05-19T05:13:23.213Z,12.60
2019-05-19T05:15:51.641Z,12.60
2019-05-19T05:18:20.118Z,12.70
2019-05-19T05:20:50.493Z,12.80
2019-05-19T05:23:18.923Z,12.90
2019-05-19T05:25:47.370Z,13.00
2019-05-19T05:28:15.839Z,13.00
2019-05-19T05:30:44.625Z,13.10
2019-05-19T05:33:13.423Z,13.10
2019-05-19T05:35:41.850Z,13.10
2019-05-19T05:38:10.680Z,13.00
2019-05-19T05:40:39.450Z,12.90
2019-05-19T05:43:07.909Z,13.00
2019-05-19T05:45:36.363Z,13.00
2019-05-19T05:48:04.858Z,13.10
2019-05-19T05:50:33.689Z,13.20
2019-05-19T05:53:02.135Z,13.20
2019-05-19T05:55:30.861Z,13.20
2019-05-19T05:57:59.313Z,13.10
2019-05-19T06:00:27.741Z,13.10
2019-05-19T06:02:56.184Z,13.20
2019-05-19T06:05:24.642Z,13.20
2019-05-19T06:07:53.136Z,13.40
2019-05-19T06:10:21.941Z,13.50
2019-05-19T06:12:50.357Z,13.60
2019-05-19T06:15:18.979Z,13.70
2019-05-19T06:17:47.404Z,13.80
2019-05-19T06:20:15.916Z,13.90
2019-05-19T06:22:56.005Z,14.00
2019-05-19T06:25:14.547Z,14.10
2019-05-19T06:27:42.974Z,14.10
2019-05-19T06:30:11.517Z,13.90
2019-05-19T06:32:50.631Z,13.80
2019-05-19T06:35:19.149Z,13.90
2019-05-19T06:37:47.582Z,14.10
2019-05-19T06:40:16.188Z,14.30
2019-05-19T06:42:44.614Z,14.50
2019-05-19T06:45:14.957Z,14.70
2019-05-19T06:47:43.406Z,14.80
2019-05-19T06:50:12.881Z,15.00
2019-05-19T06:53:12.673Z,15.00
2019-05-19T06:55:29.141Z,15.20
2019-05-19T06:57:57.558Z,15.40
2019-05-19T07:00:26.318Z,15.60
2019-05-19T07:02:56.275Z,15.80
2019-05-19T07:05:25.140Z,15.90
2019-05-19T07:07:53.550Z,16.10
2019-05-19T07:10:21.961Z,16.30
2019-05-19T07:12:50.680Z,16.50
2019-05-19T07:15:19.708Z,16.70
2019-05-19T07:17:48.450Z,16.90
2019-05-19T07:20:17.127Z,16.80
2019-05-19T07:22:45.834Z,16.80
2019-05-19T07:25:14.395Z,17.00
2019-05-19T07:27:43.102Z,16.90
2019-05-19T07:30:13.663Z,17.00
2019-05-19T07:32:42.432Z,17.10
2019-05-19T07:35:11.336Z,17.00
2019-05-19T07:37:40.111Z,16.50
2019-05-19T07:40:09.013Z,16.10
2019-05-19T07:42:37.452Z,16.00
2019-05-19T07:45:07.393Z,16.00
2019-05-19T07:47:35.841Z,16.10
2019-05-19T07:50:05.727Z,16.20
2019-05-19T07:52:39.512Z,16.50
2019-05-19T07:55:08.127Z,16.70
2019-05-19T07:57:36.564Z,16.90
2019-05-19T08:00:09.534Z,17.20
2019-05-19T08:02:38.334Z,17.30
2019-05-19T08:05:06.913Z,17.50
2019-05-19T08:07:35.355Z,17.40
2019-05-19T08:10:07.682Z,17.50
2019-05-19T08:12:37.278Z,17.50
2019-05-19T08:15:09.101Z,17.40
2019-05-19T08:17:37.524Z,17.10
2019-05-19T08:20:09.574Z,17.00
2019-05-19T08:22:38.013Z,17.10
2019-05-19T08:25:07.978Z,17.10
2019-05-19T08:27:36.419Z,17.00
2019-05-19T08:30:07.100Z,17.20
2019-05-19T08:32:35.608Z,17.40
2019-05-19T08:35:05.222Z,17.50
2019-05-19T08:37:33.651Z,17.90
2019-05-19T08:40:02.101Z,18.00
2019-05-19T08:42:30.540Z,18.00
2019-05-19T08:44:58.998Z,18.00
2019-05-19T08:47:27.844Z,17.90
2019-05-19T08:49:56.303Z,17.90
2019-05-19T08:52:25.117Z,17.90
2019-05-19T08:54:53.890Z,18.00
2019-05-19T08:57:22.341Z,18.10
2019-05-19T08:59:50.802Z,18.30
2019-05-19T09:02:19.259Z,18.20
2019-05-19T09:04:47.716Z,18.20
2019-05-19T09:07:16.498Z,18.30
2019-05-19T09:09:45.288Z,17.90
2019-05-19T09:12:13.755Z,17.70
2019-05-19T09:14:42.203Z,17.80
2019-05-19T09:17:55.276Z,18.00
2019-05-19T09:20:23.685Z,17.70
2019-05-19T09:22:52.254Z,17.90
2019-05-19T09:25:20.657Z,18.30
2019-05-19T09:27:49.468Z,18.00
2019-05-19T09:30:18.020Z,18.40
2019-05-19T09:32:46.491Z,18.90
2019-05-19T09:35:15.318Z,18.90
2019-05-19T09:37:43.734Z,19.30
2019-05-19T09:40:12.482Z,19.60
2019-05-19T09:42:41.178Z,20.00
2019-05-19T09:45:10.169Z,20.40
2019-05-19T09:47:38.994Z,20.40
2019-05-19T09:50:08.870Z,20.10
2019-05-19T09:52:37.463Z,19.80
2019-05-19T09:55:06.876Z,19.70
2019-05-19T09:57:35.457Z,19.50
2019-05-19T10:00:06.148Z,19.70
2019-05-19T10:02:34.584Z,19.70
2019-05-19T10:05:03.785Z,19.50
2019-05-19T10:07:32.254Z,19.50
2019-05-19T10:10:09.946Z,20.30
2019-05-19T10:12:38.811Z,20.70
2019-05-19T10:15:08.170Z,21.10
2019-05-19T10:17:36.614Z,21.00
2019-05-19T10:20:07.451Z,21.00
2019-05-19T10:22:36.229Z,20.80
2019-05-19T10:25:21.037Z,20.60
2019-05-19T10:27:37.690Z,20.90
2019-05-19T10:30:08.353Z,21.00
2019-05-19T10:32:37.360Z,21.10
2019-05-19T10:35:06.402Z,21.20
2019-05-19T10:37:34.876Z,21.40
2019-05-19T10:40:06.657Z,21.30
2019-05-19T10:42:35.776Z,21.00
2019-05-19T10:45:07.660Z,21.00
2019-05-19T10:47:39.547Z,20.80
2019-05-19T10:50:08.121Z,20.80
2019-05-19T10:52:38.142Z,21.10
2019-05-19T10:55:15.509Z,21.20
2019-05-19T10:57:45.819Z,21.00
2019-05-19T11:00:16.913Z,20.90
2019-05-19T11:02:45.845Z,20.70
2019-05-19T11:05:14.611Z,21.50
2019-05-19T11:07:43.626Z,21.90
2019-05-19T11:10:12.229Z,21.80
2019-05-19T11:12:40.934Z,22.10
2019-05-19T11:15:09.829Z,22.40
2019-05-19T11:17:38.258Z,22.50
2019-05-19T11:20:07.250Z,22.50
2019-05-19T11:22:36.078Z,22.90
2019-05-19T11:25:06.206Z,22.60
2019-05-19T11:27:34.983Z,21.50
2019-05-19T11:30:04.684Z,21.40
2019-05-19T11:32:33.122Z,22.00
2019-05-19T11:35:01.870Z,22.00
2019-05-19T11:37:30.457Z,22.80
2019-05-19T11:39:58.908Z,23.10
2019-05-19T11:42:27.356Z,23.60
2019-05-19T11:44:56.078Z,23.00
2019-05-19T11:47:24.863Z,21.80
2019-05-19T11:49:53.337Z,21.00
2019-05-19T11:52:22.229Z,21.10
2019-05-19T11:54:50.682Z,21.40
2019-05-19T11:57:19.129Z,21.10
2019-05-19T11:59:47.983Z,20.50
2019-05-19T12:02:16.610Z,21.00
2019-05-19T12:04:45.066Z,21.50
2019-05-19T12:07:13.507Z,22.30
2019-05-19T12:09:41.966Z,22.40
2019-05-19T12:12:10.700Z,22.20
2019-05-19T12:14:39.196Z,21.80
2019-05-19T12:17:07.747Z,21.70
2019-05-19T12:19:36.297Z,21.60
2019-05-19T12:22:04.731Z,21.80
2019-05-19T12:24:33.168Z,21.80
2019-05-19T12:27:01.611Z,21.90
2019-05-19T12:29:30.046Z,22.90
2019-05-19T12:31:58.490Z,23.50
2019-05-19T12:34:27.681Z,23.50
2019-05-19T12:36:56.203Z,23.00
2019-05-19T12:39:24.656Z,22.20
2019-05-19T12:41:53.107Z,22.30
2019-05-19T12:44:21.548Z,22.70
2019-05-19T12:46:50.003Z,22.60
2019-05-19T12:49:18.527Z,22.80
2019-05-19T12:51:46.946Z,22.80
2019-05-19T12:54:15.390Z,22.30
2019-05-19T12:56:43.873Z,21.80
2019-05-19T12:59:12.337Z,22.50
2019-05-19T13:01:40.823Z,23.10
2019-05-19T13:04:09.270Z,23.40
2019-05-19T13:06:37.698Z,23.40
2019-05-19T13:09:08.169Z,22.90
2019-05-19T13:11:36.613Z,22.30
2019-05-19T13:14:11.213Z,22.00
2019-05-19T13:16:41.668Z,22.10
2019-05-19T13:19:12.197Z,22.40
2019-05-19T13:21:41.763Z,22.50
2019-05-19T13:24:10.521Z,22.90
2019-05-19T13:26:38.950Z,23.60
2019-05-19T13:29:07.402Z,24.30
2019-05-19T13:31:35.824Z,24.00
2019-05-19T13:34:04.366Z,23.70
2019-05-19T13:36:33.092Z,24.00
2019-05-19T13:39:04.537Z,24.30
2019-05-19T13:41:32.989Z,24.50
2019-05-19T13:44:01.514Z,24.90
2019-05-19T13:46:30.634Z,25.10
2019-05-19T13:48:59.135Z,25.20
2019-05-19T13:51:28.618Z,25.40
2019-05-19T13:53:57.392Z,26.20
2019-05-19T13:56:26.187Z,26.00
2019-05-19T13:58:54.621Z,26.50
2019-05-19T14:01:28.508Z,27.20
2019-05-19T14:03:53.567Z,27.00
2019-05-19T14:06:22.025Z,27.20
2019-05-19T14:08:50.763Z,27.60
2019-05-19T14:11:19.239Z,27.40
2019-05-19T14:13:47.694Z,28.10
2019-05-19T14:16:16.129Z,28.80
2019-05-19T14:18:44.582Z,28.10
2019-05-19T14:21:13.025Z,27.90
2019-05-19T14:23:41.453Z,27.10
2019-05-19T14:26:09.902Z,27.30
2019-05-19T14:28:38.346Z,28.60
2019-05-19T14:31:06.814Z,30.40
2019-05-19T14:33:35.642Z,31.80
2019-05-19T14:36:04.112Z,31.30
2019-05-19T14:38:32.609Z,31.50
2019-05-19T14:41:01.024Z,30.70
2019-05-19T14:43:30.612Z,29.60
2019-05-19T14:45:59.054Z,29.70
2019-05-19T14:48:27.468Z,30.20
2019-05-19T14:50:56.216Z,29.60
2019-05-19T14:53:24.696Z,29.20
2019-05-19T14:55:53.195Z,29.80
2019-05-19T14:58:21.641Z,29.90
2019-05-19T15:00:50.563Z,28.80
2019-05-19T15:03:18.985Z,27.60
2019-05-19T15:05:47.450Z,27.90
2019-05-19T15:08:15.906Z,29.00
2019-05-19T15:10:44.353Z,29.90
2019-05-19T15:13:12.837Z,29.70
2019-05-19T15:15:41.301Z,28.30
2019-05-19T15:18:09.733Z,27.20
2019-05-19T15:20:38.237Z,26.30
2019-05-19T15:23:07.092Z,25.10
2019-05-19T15:25:35.957Z,24.20
2019-05-19T15:28:05.565Z,23.40
2019-05-19T15:30:34.277Z,23.10
2019-05-19T15:33:02.769Z,22.70
2019-05-19T15:35:31.267Z,22.20
2019-05-19T15:37:59.719Z,21.70
2019-05-19T15:40:28.231Z,21.60
2019-05-19T15:42:56.954Z,21.40
2019-05-19T15:45:25.403Z,21.10
2019-05-19T15:47:53.839Z,21.00
2019-05-19T15:50:22.273Z,20.80
2019-05-19T15:52:50.703Z,20.60
2019-05-19T15:55:19.137Z,20.60
2019-05-19T15:57:47.598Z,20.50
2019-05-19T16:00:16.984Z,20.40
2019-05-19T16:02:45.420Z,20.20
2019-05-19T16:05:14.430Z,20.30
2019-05-19T16:07:42.969Z,20.20
2019-05-19T16:10:12.936Z,20.20
2019-05-19T16:12:41.390Z,20.40
2019-05-19T16:15:11.759Z,21.50
2019-05-19T16:17:40.218Z,22.60
2019-05-19T16:20:09.792Z,23.60
2019-05-19T16:22:38.310Z,24.60
2019-05-19T16:25:07.800Z,25.70
2019-05-19T16:27:36.307Z,26.00
2019-05-19T16:30:08.754Z,25.80
2019-05-19T16:32:37.341Z,24.50
2019-05-19T16:35:09.234Z,23.90
2019-05-19T16:37:37.815Z,23.40
2019-05-19T16:40:07.165Z,23.40
2019-05-19T16:42:35.606Z,23.60
2019-05-19T16:45:06.706Z,23.90
2019-05-19T16:47:35.455Z,24.60
2019-05-19T16:50:05.621Z,25.20
2019-05-19T16:52:34.379Z,25.60
2019-05-19T16:55:22.610Z,25.10
2019-05-19T16:57:51.126Z,24.90
2019-05-19T17:00:20.268Z,24.10
2019-05-19T17:02:48.712Z,23.80
2019-05-19T17:05:17.271Z,23.60
2019-05-19T17:07:46.025Z,23.30
2019-05-19T17:10:15.290Z,22.60
2019-05-19T17:12:43.813Z,22.20
2019-05-19T17:15:12.734Z,21.80
2019-05-19T17:17:41.186Z,21.20
2019-05-19T17:20:10.057Z,20.90
2019-05-19T17:22:38.946Z,20.70
2019-05-19T17:25:07.890Z,20.40
2019-05-19T17:27:36.364Z,20.40
2019-05-19T17:30:09.134Z,20.40
2019-05-19T17:32:37.617Z,20.40
2019-05-19T17:35:07.415Z,20.50
2019-05-19T17:37:36.186Z,20.50
2019-05-19T17:40:05.956Z,20.60
2019-05-19T17:42:37.152Z,20.20
2019-05-19T17:45:06.798Z,20.00
2019-05-19T17:47:35.775Z,19.80
2019-05-19T17:50:05.975Z,19.60
2019-05-19T17:52:34.587Z,19.50
2019-05-19T17:55:08.343Z,19.40
2019-05-19T17:57:38.159Z,19.30
2019-05-19T18:00:10.115Z,19.30
2019-05-19T18:02:38.412Z,19.30
2019-05-19T18:05:07.986Z,19.30
2019-05-19T18:07:36.464Z,19.40
2019-05-19T18:10:06.857Z,19.20
2019-05-19T18:12:35.650Z,19.20
2019-05-19T18:15:06.043Z,19.20
2019-05-19T18:17:35.019Z,19.30
2019-05-19T18:20:06.158Z,19.20
2019-05-19T18:22:34.929Z,19.10
2019-05-19T18:25:04.185Z,18.90
2019-05-19T18:27:32.668Z,18.80
2019-05-19T18:30:01.102Z,18.80
2019-05-19T18:32:29.532Z,18.90
2019-05-19T18:34:58.006Z,18.80
2019-05-19T18:37:26.517Z,18.70
2019-05-19T18:39:55.315Z,18.60
2019-05-19T18:42:24.098Z,18.50
2019-05-19T18:44:52.581Z,18.40
2019-05-19T18:47:20.998Z,18.30
2019-05-19T18:49:49.444Z,18.20
2019-05-19T18:52:17.857Z,18.10
2019-05-19T18:54:46.597Z,18.00
2019-05-19T18:57:15.169Z,18.00
2019-05-19T18:59:47.306Z,17.80
2019-05-19T19:02:13.871Z,17.70
2019-05-19T19:04:42.317Z,17.60
2019-05-19T19:07:10.829Z,17.60
2019-05-19T19:09:39.619Z,17.50
2019-05-19T19:12:08.055Z,17.50
2019-05-19T19:14:36.915Z,17.40
2019-05-19T19:17:05.368Z,17.30
2019-05-19T19:19:33.979Z,17.30
2019-05-19T19:22:02.399Z,17.30
2019-05-19T19:24:31.133Z,17.20
2019-05-19T19:26:59.572Z,17.20
2019-05-19T19:29:28.001Z,17.10
2019-05-19T19:31:56.438Z,17.10
2019-05-19T19:34:24.885Z,17.10
2019-05-19T19:36:53.309Z,17.00
2019-05-19T19:39:21.741Z,16.90
2019-05-19T19:41:50.181Z,16.90
2019-05-19T19:44:18.669Z,16.90
2019-05-19T19:46:47.447Z,16.90
2019-05-19T19:49:19.686Z,16.80
2019-05-19T19:51:48.229Z,16.80
2019-05-19T19:54:16.657Z,16.70
2019-05-19T19:56:45.085Z,16.70
2019-05-19T19:59:13.662Z,16.70
2019-05-19T20:01:42.250Z,16.70
2019-05-19T20:04:11.121Z,16.70
2019-05-19T20:06:39.566Z,16.60
2019-05-19T20:09:08.139Z,16.70
2019-05-19T20:11:36.946Z,16.70
2019-05-19T20:14:05.465Z,16.70
2019-05-19T20:16:33.972Z,16.70
2019-05-19T20:19:02.430Z,16.70
2019-05-19T20:21:31.128Z,16.70
2019-05-19T20:23:59.866Z,16.70
2019-05-19T20:26:28.639Z,16.70
2019-05-19T20:28:57.464Z,16.60
2019-05-19T20:31:25.916Z,16.60
2019-05-19T20:33:54.337Z,16.60
2019-05-19T20:36:22.795Z,16.60
2019-05-19T20:38:51.230Z,16.60
2019-05-19T20:41:20.236Z,16.60
2019-05-19T20:43:48.667Z,16.60
2019-05-19T20:46:17.142Z,16.60
2019-05-19T20:48:45.591Z,16.60
2019-05-19T20:51:14.382Z,16.60
2019-05-19T20:53:42.850Z,16.60
2019-05-19T20:56:11.308Z,16.60
2019-05-19T20:58:39.763Z,16.60
2019-05-19T21:01:08.202Z,16.50
2019-05-19T21:03:36.645Z,16.50
2019-05-19T21:06:05.103Z,16.50
2019-05-19T21:08:33.834Z,16.50
2019-05-19T21:11:02.330Z,16.50
2019-05-19T21:13:31.308Z,16.50
2019-05-19T21:15:59.737Z,16.40
2019-05-19T21:18:28.559Z,16.40
2019-05-19T21:20:57.058Z,16.30
2019-05-19T21:23:25.501Z,16.30
2019-05-19T21:25:54.027Z,16.30
2019-05-19T21:28:22.463Z,16.30
2019-05-19T21:31:04.791Z,16.30
2019-05-19T21:33:21.143Z,16.20
2019-05-19T21:35:49.853Z,16.20
2019-05-19T21:38:18.299Z,16.20
2019-05-19T21:40:46.926Z,16.20
2019-05-19T21:43:15.709Z,16.10
2019-05-19T21:45:44.235Z,16.10
2019-05-19T21:48:12.917Z,16.10
2019-05-19T21:50:41.355Z,16.00
2019-05-19T21:53:09.903Z,16.00
2019-05-19T21:55:38.331Z,16.00
2019-05-19T21:58:06.755Z,16.00
2019-05-19T22:00:36.030Z,15.90
2019-05-19T22:03:04.632Z,15.90
2019-05-19T22:05:33.162Z,15.90
2019-05-19T22:08:03.234Z,15.80
2019-05-19T22:10:31.741Z,15.80
2019-05-19T22:13:00.178Z,15.80
2019-05-19T22:15:28.906Z,15.80
2019-05-19T22:17:57.357Z,15.80
2019-05-19T22:20:25.821Z,15.80
2019-05-19T22:22:54.245Z,15.80
2019-05-19T22:25:22.678Z,15.90
2019-05-19T22:27:51.539Z,15.90
2019-05-19T22:30:20.408Z,15.90
2019-05-19T22:32:48.843Z,15.90
2019-05-19T22:35:17.402Z,15.90
2019-05-19T22:37:45.862Z,15.80
2019-05-19T22:40:15.247Z,15.80
2019-05-19T22:42:43.687Z,15.80
2019-05-19T22:45:12.162Z,15.70
2019-05-19T22:47:40.592Z,15.70
2019-05-19T22:50:09.620Z,15.70
2019-05-19T22:52:38.128Z,15.60
2019-05-19T22:55:10.069Z,15.60
2019-05-19T22:57:38.516Z,15.60
2019-05-19T23:00:12.019Z,15.50
2019-05-19T23:02:40.890Z,15.50
2019-05-19T23:05:10.978Z,15.50
2019-05-19T23:07:39.496Z,15.50
2019-05-19T23:10:08.686Z,15.40
2019-05-19T23:12:37.121Z,15.40
2019-05-19T23:15:09.657Z,15.40
2019-05-19T23:17:38.081Z,15.30
2019-05-19T23:20:07.453Z,15.30
2019-05-19T23:22:36.294Z,15.30
2019-05-19T23:25:06.366Z,15.20
2019-05-19T23:27:34.829Z,15.20
2019-05-19T23:30:05.318Z,15.20
2019-05-19T23:32:34.108Z,15.20
2019-05-19T23:35:02.533Z,15.20
2019-05-19T23:37:30.976Z,15.20
2019-05-19T23:39:59.404Z,15.20
2019-05-19T23:42:27.851Z,15.10
2019-05-19T23:44:56.297Z,15.10
2019-05-19T23:47:24.759Z,15.10
2019-05-19T23:49:53.185Z,15.20
2019-05-19T23:52:21.942Z,15.20
2019-05-19T23:54:50.377Z,15.20
2019-05-19T23:57:18.807Z,15.10
2019-05-19T23:59:47.704Z,15.00
